Time;durP1;ratioP1;P1;durP2;ratioP2;P2;SDS_P1;SDS_P2;PMS_P1;PMS_P2;Temp;Humidity;BMP_temperature;BMP_pressure;BME280_temperature;BME280_humidity;BME280_pressure;Samples;Min_cycle;Max_cycle;Signal;HPM_P1;HPM_P2
2023/12/08 00:00:06;;;;;;;47.17;26.37;;;0.20;1.00;;;;;;5023962;28;20227;-71
2023/12/08 00:02:36;;;;;;;56.90;28.00;;;0.10;1.00;;;;;;5020705;28;20829;-70
2023/12/08 00:05:06;;;;;;;52.93;28.37;;;0.00;1.00;;;;;;5025955;28;20229;-71
2023/12/08 00:07:34;;;;;;;51.10;27.63;;;0.00;1.00;;;;;;5026610;28;20223;-71
2023/12/08 00:10:03;;;;;;;49.17;25.87;;;0.20;1.00;;;;;;5024789;28;20253;-72
2023/12/08 00:12:30;;;;;;;50.50;28.03;;;-0.10;1.00;;;;;;5021207;28;20608;-70
2023/12/08 00:14:58;;;;;;;51.63;27.27;;;0.10;1.00;;;;;;5025205;28;20590;-72
2023/12/08 00:17:29;;;;;;;51.97;26.97;;;0.20;1.00;;;;;;5017947;28;20772;-70
2023/12/08 00:19:58;;;;;;;52.60;28.00;;;0.10;1.00;;;;;;5025366;28;20231;-70
2023/12/08 00:22:28;;;;;;;55.23;27.37;;;0.20;1.00;;;;;;5023231;28;20223;-72
2023/12/08 00:24:56;;;;;;;52.47;26.60;;;0.20;1.00;;;;;;5024617;28;20245;-70
2023/12/08 00:27:25;;;;;;;49.13;25.57;;;0.30;1.00;;;;;;5024279;28;20240;-71
2023/12/08 00:29:54;;;;;;;50.57;27.10;;;0.00;1.00;;;;;;5017146;28;20226;-72
2023/12/08 00:32:22;;;;;;;57.90;26.47;;;0.00;1.00;;;;;;5025600;28;20838;-71
2023/12/08 00:34:51;;;;;;;47.30;26.47;;;0.10;1.00;;;;;;5052706;28;20242;-70
2023/12/08 00:37:21;;;;;;;46.90;26.53;;;-0.10;1.00;;;;;;5022463;28;20244;-73
2023/12/08 00:39:50;;;;;;;50.00;27.13;;;0.20;1.00;;;;;;5027620;28;20223;-73
2023/12/08 00:42:19;;;;;;;51.07;27.10;;;0.00;1.00;;;;;;5022076;28;20219;-72
2023/12/08 00:44:47;;;;;;;45.83;25.00;;;0.00;1.00;;;;;;5024986;28;20296;-72
2023/12/08 00:47:16;;;;;;;47.10;24.97;;;-0.30;1.00;;;;;;5038203;28;20323;-70
2023/12/08 00:49:45;;;;;;;49.33;26.57;;;-0.20;1.00;;;;;;5020592;28;20318;-71
2023/12/08 00:52:13;;;;;;;48.33;25.97;;;-0.30;1.00;;;;;;5020652;28;20251;-70
2023/12/08 00:54:43;;;;;;;53.00;27.23;;;-0.30;1.00;;;;;;5021529;28;20232;-70
2023/12/08 00:57:11;;;;;;;47.53;26.77;;;-0.30;1.00;;;;;;5021353;28;20229;-69
2023/12/08 00:59:40;;;;;;;48.70;27.03;;;-0.20;1.00;;;;;;5021614;28;20226;-69
2023/12/08 01:02:08;;;;;;;48.83;26.37;;;-0.20;1.00;;;;;;5015307;28;20325;-69
2023/12/08 01:04:37;;;;;;;52.50;25.40;;;-0.20;1.00;;;;;;5032901;28;20297;-68
2023/12/08 01:07:05;;;;;;;47.10;25.37;;;-0.20;1.00;;;;;;5015168;28;20215;-70
2023/12/08 01:09:33;;;;;;;48.80;24.77;;;-0.40;1.00;;;;;;5012714;28;20228;-69
2023/12/08 01:12:04;;;;;;;53.20;26.97;;;-0.50;1.00;;;;;;5016424;28;20248;-70
2023/12/08 01:14:33;;;;;;;49.67;25.17;;;-0.20;1.00;;;;;;5026893;28;20230;-69
2023/12/08 01:17:01;;;;;;;48.87;25.27;;;-0.20;1.00;;;;;;5021004;28;20246;-69
2023/12/08 01:19:29;;;;;;;51.30;25.00;;;-0.30;1.00;;;;;;5023440;28;20686;-68
2023/12/08 01:21:58;;;;;;;45.73;25.20;;;-0.40;1.00;;;;;;5023360;28;20280;-68
2023/12/08 01:24:27;;;;;;;42.17;24.03;;;-0.20;1.00;;;;;;5021034;28;20226;-68
2023/12/08 01:26:55;;;;;;;49.87;25.07;;;-0.20;1.00;;;;;;5020071;28;20247;-70
2023/12/08 01:29:26;;;;;;;47.03;25.37;;;-0.10;1.00;;;;;;5020514;28;20236;-69
2023/12/08 01:31:54;;;;;;;47.70;25.73;;;0.00;1.00;;;;;;5020436;28;20219;-71
2023/12/08 01:34:23;;;;;;;48.93;25.63;;;-0.10;1.00;;;;;;5022211;28;20284;-69
2023/12/08 01:36:52;;;;;;;46.93;25.77;;;-0.20;1.00;;;;;;5022370;28;20673;-69
2023/12/08 01:39:20;;;;;;;44.77;25.13;;;-0.10;1.00;;;;;;5020933;28;20327;-69
2023/12/08 01:41:51;;;;;;;48.27;24.53;;;0.00;1.00;;;;;;5022925;28;20223;-70
2023/12/08 01:44:19;;;;;;;50.27;24.93;;;0.10;1.00;;;;;;5021033;28;20250;-67
2023/12/08 01:46:50;;;;;;;46.43;24.13;;;0.20;1.00;;;;;;5025174;28;20233;-69
2023/12/08 01:49:19;;;;;;;45.00;23.40;;;0.30;1.00;;;;;;5018394;28;20239;-69
2023/12/08 01:51:48;;;;;;;50.17;23.87;;;0.20;1.00;;;;;;5017826;28;20243;-69
2023/12/08 01:54:17;;;;;;;43.00;21.13;;;0.20;1.00;;;;;;5017858;28;20308;-71
2023/12/08 01:56:46;;;;;;;41.07;22.10;;;0.00;1.00;;;;;;5037689;28;20304;-69
2023/12/08 01:59:15;;;;;;;40.60;22.63;;;-0.20;1.00;;;;;;5019697;28;20235;-70
2023/12/08 02:01:44;;;;;;;42.80;22.30;;;-0.10;1.00;;;;;;5022873;28;20263;-71
2023/12/08 02:04:15;;;;;;;45.13;23.77;;;-0.20;1.00;;;;;;5018956;28;20263;-70
2023/12/08 02:06:43;;;;;;;42.07;21.90;;;-0.10;1.00;;;;;;5020728;28;20220;-70
2023/12/08 02:09:17;;;;;;;42.13;22.20;;;0.00;1.00;;;;;;5017510;28;20272;-69
2023/12/08 02:11:46;;;;;;;42.53;22.70;;;-0.10;1.00;;;;;;5023961;28;20238;-72
2023/12/08 02:14:15;;;;;;;42.27;22.90;;;-0.10;1.00;;;;;;5027505;28;20304;-70
2023/12/08 02:16:54;;;;;;;47.33;23.57;;;0.00;1.00;;;;;;5016818;28;20254;-69
2023/12/08 02:19:24;;;;;;;47.90;22.63;;;0.20;1.00;;;;;;5020381;28;20315;-70
2023/12/08 02:21:54;;;;;;;42.07;22.13;;;0.10;1.00;;;;;;5016355;28;20289;-70
2023/12/08 02:24:23;;;;;;;47.50;22.60;;;-0.30;1.00;;;;;;5037674;28;20314;-70
2023/12/08 02:26:52;;;;;;;45.83;22.07;;;-0.30;1.00;;;;;;5020485;28;20355;-70
2023/12/08 02:29:21;;;;;;;44.40;23.10;;;-0.30;1.00;;;;;;5021829;28;20250;-70
2023/12/08 02:32:08;;;;;;;41.93;22.37;;;-0.10;1.00;;;;;;5021483;28;20314;-70
2023/12/08 02:34:37;;;;;;;42.23;21.70;;;-0.10;1.00;;;;;;5022306;28;20251;-70
2023/12/08 02:37:08;;;;;;;43.27;21.83;;;-0.20;1.00;;;;;;5018951;28;20278;-71
2023/12/08 02:39:39;;;;;;;42.83;21.37;;;-0.20;1.00;;;;;;5020088;28;20238;-69
2023/12/08 02:42:08;;;;;;;43.63;21.97;;;-0.40;1.00;;;;;;5018852;28;20714;-69
2023/12/08 02:44:37;;;;;;;43.27;21.23;;;-0.30;1.00;;;;;;5023927;28;20217;-69
2023/12/08 02:47:06;;;;;;;41.30;21.37;;;-0.50;1.00;;;;;;5020748;28;20229;-71
2023/12/08 02:49:35;;;;;;;41.57;21.03;;;-0.60;1.00;;;;;;5014653;28;20351;-70
2023/12/08 02:52:04;;;;;;;42.50;21.60;;;-0.40;1.00;;;;;;5018322;28;20271;-69
2023/12/08 02:54:32;;;;;;;43.87;22.07;;;-0.40;1.00;;;;;;5017963;28;20227;-70
2023/12/08 02:57:02;;;;;;;42.67;22.30;;;-0.50;1.00;;;;;;5018317;28;20236;-70
2023/12/08 02:59:31;;;;;;;43.33;22.30;;;-0.40;1.00;;;;;;5026253;28;20227;-70
2023/12/08 03:01:59;;;;;;;44.07;22.57;;;-0.30;1.00;;;;;;5021368;28;20796;-71
2023/12/08 03:04:28;;;;;;;41.33;21.83;;;-0.30;1.00;;;;;;5026913;28;20552;-72
2023/12/08 03:06:57;;;;;;;41.83;21.67;;;-0.50;1.00;;;;;;5025613;28;20228;-70
2023/12/08 03:09:26;;;;;;;44.70;22.73;;;-0.50;1.00;;;;;;5020920;28;20230;-70
2023/12/08 03:11:54;;;;;;;46.60;22.23;;;-0.40;1.00;;;;;;5023267;28;20695;-72
2023/12/08 03:14:25;;;;;;;44.53;22.17;;;-0.40;1.00;;;;;;5024968;28;20720;-70
2023/12/08 03:16:53;;;;;;;47.53;22.30;;;-0.30;1.00;;;;;;5022980;28;20285;-73
2023/12/08 03:19:21;;;;;;;45.80;22.00;;;-0.30;1.00;;;;;;5016673;28;20297;-69
2023/12/08 03:21:49;;;;;;;47.10;22.40;;;-0.10;1.00;;;;;;5021198;28;20251;-70
2023/12/08 03:24:18;;;;;;;44.23;22.67;;;-0.10;1.00;;;;;;5034920;28;20311;-68
2023/12/08 03:26:47;;;;;;;42.33;22.90;;;-0.20;1.00;;;;;;5038916;28;20692;-70
2023/12/08 03:29:16;;;;;;;41.83;22.40;;;-0.20;1.00;;;;;;5019895;28;20268;-69
2023/12/08 03:31:45;;;;;;;42.60;22.00;;;-0.30;1.00;;;;;;5026366;28;20227;-69
2023/12/08 03:34:14;;;;;;;51.40;23.73;;;-0.20;1.00;;;;;;5060029;28;20324;-69
2023/12/08 03:36:42;;;;;;;44.07;22.83;;;-0.10;1.00;;;;;;5021776;28;20321;-69
2023/12/08 03:39:11;;;;;;;47.50;23.00;;;0.00;1.00;;;;;;5020127;28;20729;-70
2023/12/08 03:41:39;;;;;;;44.43;22.40;;;0.00;1.00;;;;;;5025077;28;20732;-69
2023/12/08 03:44:08;;;;;;;47.27;23.33;;;0.10;1.00;;;;;;5015804;28;20287;-70
2023/12/08 03:46:37;;;;;;;46.70;22.77;;;0.00;1.00;;;;;;5023590;28;20246;-67
2023/12/08 03:49:06;;;;;;;49.03;23.40;;;0.00;1.00;;;;;;5025791;28;20250;-69
2023/12/08 03:51:35;;;;;;;48.53;24.47;;;0.00;1.00;;;;;;5019348;28;20218;-69
2023/12/08 03:54:04;;;;;;;45.87;23.63;;;-0.10;1.00;;;;;;5023513;28;20233;-66
2023/12/08 03:56:32;;;;;;;48.93;23.93;;;0.00;1.00;;;;;;5024230;28;20263;-69
2023/12/08 03:59:01;;;;;;;49.43;23.37;;;0.00;1.00;;;;;;5022345;28;20314;-69
2023/12/08 04:01:29;;;;;;;49.27;23.43;;;0.00;1.00;;;;;;5022456;28;20228;-69
2023/12/08 04:03:58;;;;;;;49.80;24.20;;;-0.10;1.00;;;;;;5026606;28;20220;-69
2023/12/08 04:06:28;;;;;;;52.13;24.67;;;-0.20;1.00;;;;;;5026851;28;20298;-69
2023/12/08 04:08:56;;;;;;;52.83;25.27;;;-0.20;1.00;;;;;;5024105;28;20706;-71
2023/12/08 04:11:25;;;;;;;46.70;24.03;;;-0.20;1.00;;;;;;5024377;28;20234;-69
2023/12/08 04:13:53;;;;;;;50.97;24.47;;;-0.40;1.00;;;;;;5027332;28;20701;-71
2023/12/08 04:16:22;;;;;;;52.77;24.27;;;-0.30;1.00;;;;;;5018308;28;20226;-70
2023/12/08 04:18:50;;;;;;;52.20;25.80;;;-0.20;1.00;;;;;;5022803;28;20234;-69
2023/12/08 04:21:19;;;;;;;56.00;26.00;;;-0.30;1.00;;;;;;5020914;28;20227;-69
2023/12/08 04:23:49;;;;;;;49.43;24.53;;;-0.40;1.00;;;;;;5024894;28;20240;-69
2023/12/08 04:26:24;;;;;;;49.77;25.60;;;-0.40;1.00;;;;;;5022537;28;20236;-70
2023/12/08 04:28:53;;;;;;;52.40;24.90;;;-0.30;1.00;;;;;;5021956;28;20339;-71
2023/12/08 04:31:22;;;;;;;51.50;25.60;;;-0.40;1.00;;;;;;5021459;28;20228;-72
2023/12/08 04:33:52;;;;;;;53.60;26.10;;;-0.20;1.00;;;;;;5021721;28;20231;-70
2023/12/08 04:36:21;;;;;;;54.30;25.83;;;-0.30;1.00;;;;;;5022298;28;20718;-71
2023/12/08 04:38:50;;;;;;;51.50;25.97;;;-0.30;1.00;;;;;;5018300;28;20312;-69
2023/12/08 04:41:19;;;;;;;55.03;25.70;;;-0.30;1.00;;;;;;5037584;28;21065;-69
2023/12/08 04:43:47;;;;;;;59.93;26.67;;;-0.30;1.00;;;;;;5021141;28;20246;-70
2023/12/08 04:46:17;;;;;;;59.93;28.30;;;-0.10;1.00;;;;;;5021565;28;20232;-70
2023/12/08 04:48:46;;;;;;;51.83;25.23;;;-0.10;1.00;;;;;;5023229;28;20317;-70
2023/12/08 04:51:15;;;;;;;55.80;26.30;;;-0.10;1.00;;;;;;5020970;28;20234;-69
2023/12/08 04:53:44;;;;;;;55.73;26.13;;;-0.10;1.00;;;;;;5021800;28;20742;-70
2023/12/08 04:56:13;;;;;;;50.77;25.07;;;-0.10;1.00;;;;;;5021808;28;20323;-69
2023/12/08 04:58:42;;;;;;;53.13;25.50;;;-0.10;1.00;;;;;;5023224;28;20222;-69
2023/12/08 05:01:13;;;;;;;51.03;26.90;;;-0.30;1.00;;;;;;5023754;28;20534;-70
2023/12/08 05:03:41;;;;;;;55.17;26.80;;;-0.50;1.00;;;;;;5025043;28;20238;-72
2023/12/08 05:06:10;;;;;;;55.53;26.73;;;-0.50;1.00;;;;;;5018609;28;20230;-70
2023/12/08 05:08:39;;;;;;;55.90;26.33;;;-0.50;1.00;;;;;;5021800;28;20296;-70
2023/12/08 05:11:08;;;;;;;53.33;27.03;;;-0.40;1.00;;;;;;5017869;28;20300;-72
2023/12/08 05:13:38;;;;;;;52.77;27.00;;;-0.50;1.00;;;;;;5020707;28;20589;-71
2023/12/08 05:16:11;;;;;;;49.87;25.77;;;-0.50;1.00;;;;;;5016700;28;20686;-71
2023/12/08 05:18:40;;;;;;;53.43;26.23;;;-0.60;1.00;;;;;;5022449;28;20732;-69
2023/12/08 05:21:10;;;;;;;51.23;26.00;;;-0.70;1.00;;;;;;5019325;28;20235;-70
2023/12/08 05:23:39;;;;;;;53.07;26.03;;;-0.80;1.00;;;;;;5019791;28;20231;-70
2023/12/08 05:26:08;;;;;;;53.77;26.43;;;-0.80;1.00;;;;;;5022259;28;20226;-70
2023/12/08 05:28:38;;;;;;;53.13;26.73;;;-0.80;1.00;;;;;;5023185;28;20234;-69
2023/12/08 05:31:07;;;;;;;54.93;27.03;;;-0.70;1.00;;;;;;5021349;28;20328;-71
2023/12/08 05:33:35;;;;;;;55.43;27.43;;;-0.80;1.00;;;;;;5020248;28;20240;-71
2023/12/08 05:36:04;;;;;;;53.63;27.03;;;-0.80;1.00;;;;;;5022032;28;20232;-70
2023/12/08 05:38:34;;;;;;;54.70;26.37;;;-0.90;1.00;;;;;;5020524;28;20231;-70
2023/12/08 05:41:03;;;;;;;54.30;27.13;;;-0.90;1.00;;;;;;5017701;28;20222;-70
2023/12/08 05:43:31;;;;;;;53.70;26.87;;;-0.80;1.00;;;;;;5022290;28;20226;-69
2023/12/08 05:46:02;;;;;;;59.73;27.90;;;-1.00;1.00;;;;;;5019163;28;20304;-72
2023/12/08 05:48:30;;;;;;;58.17;28.50;;;-0.80;1.00;;;;;;5020874;28;20935;-69
2023/12/08 05:50:59;;;;;;;61.00;27.87;;;-0.80;1.00;;;;;;5020204;28;20663;-70
2023/12/08 05:53:27;;;;;;;53.43;28.20;;;-0.70;1.00;;;;;;5020291;28;20649;-69
2023/12/08 05:55:56;;;;;;;62.73;28.40;;;-0.60;1.00;;;;;;5019717;28;20226;-70
2023/12/08 05:58:25;;;;;;;61.83;27.30;;;-0.60;1.00;;;;;;5020013;28;20273;-69
2023/12/08 06:00:54;;;;;;;56.90;27.33;;;-0.60;1.00;;;;;;5018139;28;20710;-71
2023/12/08 06:03:24;;;;;;;64.40;28.63;;;-0.60;1.00;;;;;;5025199;28;20222;-69
2023/12/08 06:05:52;;;;;;;61.27;27.97;;;-0.60;1.00;;;;;;5019707;28;20249;-70
2023/12/08 06:08:21;;;;;;;58.40;28.90;;;-0.70;1.00;;;;;;5023455;28;20261;-68
2023/12/08 06:10:49;;;;;;;62.07;27.70;;;-0.80;1.00;;;;;;5023048;28;20221;-68
2023/12/08 06:13:18;;;;;;;64.33;28.47;;;-0.90;1.00;;;;;;5015916;28;20225;-69
2023/12/08 06:15:46;;;;;;;63.17;29.23;;;-0.80;1.00;;;;;;5021047;28;20246;-69
2023/12/08 06:18:15;;;;;;;56.60;26.47;;;-0.60;1.00;;;;;;5022093;28;20224;-70
2023/12/08 06:20:45;;;;;;;58.43;26.90;;;-0.70;1.00;;;;;;5022481;28;20221;-70
2023/12/08 06:23:14;;;;;;;60.73;28.03;;;-0.70;1.00;;;;;;5020062;28;20276;-68
2023/12/08 06:25:42;;;;;;;59.30;29.57;;;-0.60;1.00;;;;;;5020966;28;20236;-67
2023/12/08 06:28:11;;;;;;;69.70;28.77;;;-0.70;1.00;;;;;;5032455;28;20238;-70
2023/12/08 06:30:39;;;;;;;62.27;28.37;;;-0.80;1.00;;;;;;5020774;28;20238;-68
2023/12/08 06:33:08;;;;;;;62.43;29.23;;;-0.80;1.00;;;;;;5019137;28;20312;-70
2023/12/08 06:35:36;;;;;;;66.07;28.93;;;-0.70;1.00;;;;;;5025840;28;20306;-69
2023/12/08 06:38:06;;;;;;;62.53;27.93;;;-0.80;1.00;;;;;;5023771;28;20771;-70
2023/12/08 06:40:35;;;;;;;67.40;29.20;;;-0.80;1.00;;;;;;5021156;28;20681;-71
2023/12/08 06:43:04;;;;;;;65.33;28.57;;;-0.90;1.00;;;;;;5052658;28;20312;-70
2023/12/08 06:45:32;;;;;;;69.90;28.90;;;-0.80;1.00;;;;;;5025670;28;20234;-69
2023/12/08 06:48:01;;;;;;;60.93;28.47;;;-0.70;1.00;;;;;;5024975;28;20253;-71
2023/12/08 06:50:30;;;;;;;66.60;29.20;;;-0.70;1.00;;;;;;5021581;28;20232;-71
2023/12/08 06:52:59;;;;;;;62.33;29.03;;;-0.60;1.00;;;;;;5022999;28;20312;-70
2023/12/08 06:55:29;;;;;;;68.87;30.10;;;-0.50;1.00;;;;;;5022737;28;20221;-69
2023/12/08 06:57:58;;;;;;;63.43;28.10;;;-0.50;1.00;;;;;;5023606;28;20808;-70
2023/12/08 07:00:26;;;;;;;61.17;28.67;;;-0.30;1.00;;;;;;5023024;28;20328;-70
2023/12/08 07:02:55;;;;;;;65.17;28.77;;;-0.30;1.00;;;;;;5026308;28;20588;-68
2023/12/08 07:05:23;;;;;;;62.73;28.93;;;-0.30;1.00;;;;;;5022792;28;20901;-70
2023/12/08 07:07:52;;;;;;;61.47;28.90;;;-0.30;1.00;;;;;;5019937;28;20245;-70
2023/12/08 07:10:20;;;;;;;64.93;28.50;;;-0.60;1.00;;;;;;5023003;28;20225;-69
2023/12/08 07:12:50;;;;;;;64.67;29.07;;;-0.50;1.00;;;;;;5025731;28;20222;-72
2023/12/08 07:15:20;;;;;;;65.53;29.83;;;-0.70;1.00;;;;;;5049971;28;21010;-71
2023/12/08 07:17:49;;;;;;;63.83;29.40;;;-0.60;1.00;;;;;;5021321;28;20245;-73
2023/12/08 07:20:18;;;;;;;68.37;29.00;;;-0.60;1.00;;;;;;5022324;28;20682;-71
2023/12/08 07:22:46;;;;;;;67.90;29.50;;;-0.50;1.00;;;;;;5017318;28;20225;-71
2023/12/08 07:25:15;;;;;;;63.77;27.83;;;-0.60;1.00;;;;;;5019650;28;20252;-70
2023/12/08 07:27:44;;;;;;;63.83;27.70;;;-0.40;1.00;;;;;;5030258;28;20295;-69
2023/12/08 07:30:14;;;;;;;67.47;30.83;;;-0.50;1.00;;;;;;5034822;28;20230;-71
2023/12/08 07:32:43;;;;;;;65.00;29.17;;;-0.70;1.00;;;;;;5016425;28;20739;-71
2023/12/08 07:35:12;;;;;;;64.43;29.30;;;-0.60;1.00;;;;;;5020680;28;20586;-70
2023/12/08 07:37:41;;;;;;;69.40;29.77;;;-0.50;1.00;;;;;;5016621;28;20226;-68
2023/12/08 07:40:11;;;;;;;65.40;29.57;;;-0.60;1.00;;;;;;5017172;28;20230;-71
2023/12/08 07:42:40;;;;;;;70.30;29.57;;;-0.50;1.00;;;;;;5034772;28;20229;-70
2023/12/08 07:45:10;;;;;;;64.80;28.70;;;-0.40;1.00;;;;;;5019613;28;20218;-71
2023/12/08 07:47:40;;;;;;;66.00;29.90;;;-0.40;1.00;;;;;;5017921;28;20225;-71
2023/12/08 07:50:09;;;;;;;77.23;30.43;;;-0.40;1.00;;;;;;5038173;28;20724;-71
2023/12/08 07:52:38;;;;;;;63.80;30.03;;;-0.30;1.00;;;;;;5021683;28;20698;-69
2023/12/08 07:55:07;;;;;;;66.53;29.83;;;-0.50;1.00;;;;;;5016895;28;20300;-72
2023/12/08 07:57:35;;;;;;;72.00;30.43;;;-0.60;1.00;;;;;;5011076;28;20222;-70
2023/12/08 08:00:06;;;;;;;71.67;31.33;;;-0.40;1.00;;;;;;5033947;28;20341;-71
2023/12/08 08:02:34;;;;;;;71.90;31.03;;;-0.20;1.00;;;;;;5041445;28;20240;-70
2023/12/08 08:05:05;;;;;;;68.07;30.20;;;-0.20;1.00;;;;;;5016740;28;20249;-71
2023/12/08 08:07:34;;;;;;;67.60;31.30;;;-0.20;1.00;;;;;;5017319;28;20225;-69
2023/12/08 08:10:02;;;;;;;68.50;30.43;;;-0.30;1.00;;;;;;5047409;28;20225;-70
2023/12/08 08:12:33;;;;;;;66.57;30.03;;;-0.20;1.00;;;;;;5018593;28;20462;-69
2023/12/08 08:15:02;;;;;;;73.97;30.20;;;-0.20;1.00;;;;;;5018182;28;20235;-70
2023/12/08 08:17:31;;;;;;;66.80;30.13;;;-0.20;1.00;;;;;;5015761;28;20692;-69
2023/12/08 08:19:59;;;;;;;63.83;30.33;;;-0.10;1.00;;;;;;5017768;28;20292;-70
2023/12/08 08:22:30;;;;;;;69.80;31.10;;;-0.20;1.00;;;;;;5021427;28;20292;-70
2023/12/08 08:25:01;;;;;;;65.50;30.17;;;-0.20;1.00;;;;;;5036520;28;20295;-72
2023/12/08 08:27:31;;;;;;;67.00;29.50;;;-0.30;1.00;;;;;;5020110;28;20220;-71
2023/12/08 08:30:00;;;;;;;68.27;31.03;;;-0.30;1.00;;;;;;5021501;28;20236;-72
2023/12/08 08:32:29;;;;;;;79.03;37.13;;;-0.20;1.00;;;;;;5017612;28;20254;-72
2023/12/08 08:34:58;;;;;;;68.00;30.90;;;-0.10;1.00;;;;;;5026783;28;20227;-71
2023/12/08 08:37:29;;;;;;;66.77;29.13;;;0.00;1.00;;;;;;5016448;28;20239;-70
2023/12/08 08:39:58;;;;;;;69.60;30.70;;;-0.10;1.00;;;;;;5020940;28;20285;-72
2023/12/08 08:42:27;;;;;;;67.17;32.23;;;-0.20;1.00;;;;;;5025334;28;20288;-70
2023/12/08 08:44:55;;;;;;;76.23;33.43;;;-0.30;1.00;;;;;;5019419;28;20222;-73
2023/12/08 08:47:24;;;;;;;69.67;30.63;;;-0.40;1.00;;;;;;5035021;28;20258;-71
2023/12/08 08:49:53;;;;;;;61.73;31.40;;;-0.50;1.00;;;;;;5020499;28;20244;-71
2023/12/08 08:52:22;;;;;;;69.73;31.00;;;-0.40;1.00;;;;;;5010555;28;20256;-72
2023/12/08 08:54:52;;;;;;;63.67;29.87;;;-0.30;1.00;;;;;;5022802;28;20226;-71
2023/12/08 08:57:21;;;;;;;72.47;31.80;;;-0.20;1.00;;;;;;5020351;28;20235;-71
2023/12/08 08:59:50;;;;;;;71.57;32.67;;;0.00;1.00;;;;;;5019127;28;20215;-69
2023/12/08 09:02:18;;;;;;;63.17;28.30;;;0.00;1.00;;;;;;5022241;28;20222;-72
2023/12/08 09:04:47;;;;;;;66.57;31.27;;;-0.10;1.00;;;;;;5033116;28;20221;-71
2023/12/08 09:07:17;;;;;;;66.97;30.10;;;-0.20;1.00;;;;;;5023490;28;20322;-71
2023/12/08 09:09:45;;;;;;;70.23;31.47;;;-0.30;1.00;;;;;;5019251;28;20227;-73
2023/12/08 09:12:16;;;;;;;70.03;31.63;;;-0.10;1.00;;;;;;5014134;28;20775;-72
2023/12/08 09:14:45;;;;;;;68.47;31.57;;;0.00;1.00;;;;;;5016290;28;20330;-72
2023/12/08 09:17:13;;;;;;;70.07;30.77;;;-0.20;1.00;;;;;;5044777;28;20220;-71
2023/12/08 09:19:42;;;;;;;68.77;30.97;;;-0.10;1.00;;;;;;5020703;28;20226;-69
2023/12/08 09:22:11;;;;;;;74.70;31.33;;;-0.20;1.00;;;;;;5019542;28;20218;-73
2023/12/08 09:24:39;;;;;;;67.27;31.07;;;-0.10;1.00;;;;;;5020867;28;20430;-71
2023/12/08 09:27:08;;;;;;;68.73;31.73;;;-0.10;1.00;;;;;;5018061;28;20228;-72
2023/12/08 09:29:38;;;;;;;71.37;32.17;;;0.00;1.00;;;;;;5017724;28;20808;-71
2023/12/08 09:32:07;;;;;;;71.83;32.20;;;-0.10;1.00;;;;;;5017632;28;20221;-72
2023/12/08 09:34:35;;;;;;;66.03;31.13;;;-0.10;1.00;;;;;;5017948;28;20233;-71
2023/12/08 09:37:04;;;;;;;72.07;31.47;;;-0.10;1.00;;;;;;5018186;28;20766;-71
2023/12/08 09:39:53;;;;;;;71.77;31.37;;;-0.10;1.00;;;;;;5018554;28;20230;-71
2023/12/08 09:42:28;;;;;;;72.20;33.63;;;0.00;1.00;;;;;;5015557;28;20244;-70
2023/12/08 09:44:58;;;;;;;67.73;31.80;;;-0.20;1.00;;;;;;5010435;28;20292;-74
2023/12/08 09:47:28;;;;;;;67.43;32.87;;;-0.20;1.00;;;;;;5014572;28;20247;-70
2023/12/08 09:49:56;;;;;;;67.60;32.83;;;0.00;1.00;;;;;;5032876;28;20329;-70
2023/12/08 09:52:27;;;;;;;66.23;31.33;;;0.00;1.00;;;;;;5045458;28;20221;-71
2023/12/08 09:54:55;;;;;;;73.97;33.30;;;0.00;1.00;;;;;;5021118;28;20220;-72
2023/12/08 09:57:26;;;;;;;75.07;32.57;;;0.10;1.00;;;;;;5019256;28;20230;-70
2023/12/08 09:59:56;;;;;;;70.63;31.07;;;0.00;1.00;;;;;;5016672;28;20318;-72
2023/12/08 10:02:26;;;;;;;74.00;32.93;;;0.30;1.00;;;;;;5014790;28;20223;-70
2023/12/08 10:04:57;;;;;;;66.00;32.50;;;0.10;1.00;;;;;;5016554;28;20227;-71
2023/12/08 10:07:31;;;;;;;68.43;32.20;;;0.10;1.00;;;;;;5015147;28;20232;-70
2023/12/08 10:10:01;;;;;;;73.30;32.60;;;0.10;1.00;;;;;;5037023;28;20238;-70
2023/12/08 10:12:30;;;;;;;75.27;32.50;;;0.20;1.00;;;;;;5018446;28;20226;-70
2023/12/08 10:15:00;;;;;;;74.80;32.87;;;0.10;1.00;;;;;;5052233;28;20262;-70
2023/12/08 10:17:30;;;;;;;69.33;32.50;;;0.30;1.00;;;;;;5053326;28;20339;-70
2023/12/08 10:20:09;;;;;;;76.03;33.83;;;0.30;1.00;;;;;;5037346;28;20656;-69
2023/12/08 10:22:47;;;;;;;70.37;33.40;;;0.40;1.00;;;;;;5018953;28;21047;-70
2023/12/08 10:25:17;;;;;;;68.03;31.47;;;0.40;1.00;;;;;;5023392;28;20979;-70
2023/12/08 10:27:47;;;;;;;71.97;32.23;;;0.30;1.00;;;;;;5033180;28;20707;-71
2023/12/08 10:30:17;;;;;;;70.87;33.93;;;0.20;1.00;;;;;;5018903;28;20235;-71
2023/12/08 10:32:47;;;;;;;71.33;33.07;;;0.20;1.00;;;;;;5024607;28;20290;-71
2023/12/08 10:35:17;;;;;;;74.27;32.93;;;0.30;1.00;;;;;;5017909;28;20286;-69
2023/12/08 10:37:45;;;;;;;73.80;32.53;;;0.20;1.00;;;;;;5016674;28;20276;-69
2023/12/08 10:40:18;;;;;;;76.40;34.23;;;0.10;1.00;;;;;;5018473;28;20366;-70
2023/12/08 10:42:48;;;;;;;76.67;33.87;;;0.40;1.00;;;;;;5020637;28;20220;-69
2023/12/08 10:45:17;;;;;;;68.80;33.67;;;0.40;1.00;;;;;;5019194;28;20916;-69
2023/12/08 10:47:49;;;;;;;79.13;33.00;;;0.40;1.00;;;;;;5021830;28;20227;-73
2023/12/08 10:50:21;;;;;;;76.03;33.97;;;0.40;1.00;;;;;;5023824;28;20695;-70
2023/12/08 10:52:51;;;;;;;74.30;33.70;;;0.20;1.00;;;;;;5021491;28;20316;-71
2023/12/08 10:55:20;;;;;;;78.63;32.67;;;0.00;1.00;;;;;;5022713;28;20228;-72
2023/12/08 10:57:56;;;;;;;75.63;34.37;;;0.20;1.00;;;;;;5024435;28;20233;-71
2023/12/08 11:00:26;;;;;;;78.43;34.70;;;0.10;1.00;;;;;;5026817;28;20245;-68
2023/12/08 11:02:58;;;;;;;78.13;34.67;;;0.20;1.00;;;;;;5026631;28;20706;-71
2023/12/08 11:05:31;;;;;;;90.23;36.00;;;0.10;1.00;;;;;;5025837;28;20333;-70
2023/12/08 11:08:03;;;;;;;77.10;33.80;;;0.20;1.00;;;;;;5015300;28;20236;-71
2023/12/08 11:10:37;;;;;;;82.37;34.97;;;0.30;1.00;;;;;;5019903;28;20665;-71
2023/12/08 11:13:12;;;;;;;81.30;34.20;;;0.30;1.00;;;;;;5021516;28;20242;-71
2023/12/08 11:16:00;;;;;;;79.53;34.80;;;0.30;1.00;;;;;;5025262;28;20229;-70
2023/12/08 11:18:31;;;;;;;74.63;33.87;;;0.30;1.00;;;;;;5014522;28;21032;-69
2023/12/08 11:21:01;;;;;;;82.57;36.87;;;0.30;1.00;;;;;;5023766;28;20231;-71
2023/12/08 11:23:31;;;;;;;82.37;34.53;;;0.40;1.00;;;;;;5024122;28;20244;-70
2023/12/08 11:26:06;;;;;;;85.47;34.20;;;0.30;1.00;;;;;;5016910;28;20723;-72
2023/12/08 11:28:42;;;;;;;84.43;36.10;;;0.30;1.00;;;;;;5037649;28;20273;-70
2023/12/08 11:31:19;;;;;;;84.87;35.70;;;0.30;1.00;;;;;;5020551;28;20264;-69
2023/12/08 11:33:57;;;;;;;75.30;34.40;;;0.40;1.00;;;;;;5020731;28;20258;-70
2023/12/08 11:36:28;;;;;;;79.07;34.67;;;0.30;1.00;;;;;;5025569;28;20238;-70
2023/12/08 11:38:57;;;;;;;76.93;34.30;;;0.30;1.00;;;;;;5022279;28;20232;-69
2023/12/08 11:41:26;;;;;;;78.77;35.23;;;0.20;1.00;;;;;;5022058;28;20318;-70
2023/12/08 11:44:07;;;;;;;83.73;36.27;;;0.30;1.00;;;;;;5016452;28;21363;-71
2023/12/08 11:46:36;;;;;;;84.60;35.87;;;0.20;1.00;;;;;;5025485;28;20332;-70
2023/12/08 11:49:06;;;;;;;79.60;36.30;;;0.20;1.00;;;;;;5020869;28;20299;-70
2023/12/08 11:51:37;;;;;;;86.23;37.60;;;0.20;1.00;;;;;;5022414;28;20225;-70
2023/12/08 11:54:07;;;;;;;84.67;35.17;;;0.40;1.00;;;;;;5023960;28;20236;-72
2023/12/08 11:56:41;;;;;;;83.87;36.57;;;0.60;1.00;;;;;;5024402;28;20301;-70
2023/12/08 11:59:14;;;;;;;85.57;35.77;;;0.60;1.00;;;;;;5021437;28;20241;-72
2023/12/08 12:01:43;;;;;;;83.77;36.50;;;0.50;1.00;;;;;;5026851;28;20302;-73
2023/12/08 12:04:13;;;;;;;78.70;36.53;;;0.20;1.00;;;;;;5026451;28;20224;-71
2023/12/08 12:06:44;;;;;;;81.33;36.43;;;0.40;1.00;;;;;;5025361;28;20231;-71
2023/12/08 12:09:15;;;;;;;81.23;36.07;;;0.50;1.00;;;;;;5015680;28;20231;-72
2023/12/08 12:11:47;;;;;;;85.77;36.57;;;0.60;1.00;;;;;;5024397;28;20238;-71
2023/12/08 12:14:20;;;;;;;88.03;37.83;;;0.80;1.00;;;;;;5016820;28;20329;-69
2023/12/08 12:16:48;;;;;;;79.70;35.77;;;0.80;1.00;;;;;;5018366;28;20228;-71
2023/12/08 12:19:19;;;;;;;81.80;36.03;;;0.90;1.00;;;;;;5054918;28;20226;-70
2023/12/08 12:21:48;;;;;;;84.90;37.33;;;0.90;1.00;;;;;;5021684;28;20300;-70
2023/12/08 12:24:16;;;;;;;89.20;38.60;;;0.80;1.00;;;;;;5021613;28;20256;-71
2023/12/08 12:26:45;;;;;;;80.63;36.53;;;0.70;1.00;;;;;;5020681;28;20236;-71
2023/12/08 12:29:15;;;;;;;85.43;37.83;;;0.80;1.00;;;;;;5024362;28;20227;-71
2023/12/08 12:31:43;;;;;;;87.10;37.67;;;0.80;1.00;;;;;;5019771;28;20227;-70
2023/12/08 12:34:11;;;;;;;84.13;38.00;;;1.00;1.00;;;;;;5019195;28;20729;-71
2023/12/08 12:36:42;;;;;;;85.77;38.03;;;1.00;1.00;;;;;;5021964;28;20310;-71
2023/12/08 12:39:11;;;;;;;95.27;38.77;;;0.80;1.00;;;;;;5023504;28;20220;-69
2023/12/08 12:41:40;;;;;;;90.53;39.87;;;0.80;1.00;;;;;;5018656;28;20248;-69
2023/12/08 12:44:09;;;;;;;94.20;37.77;;;0.80;1.00;;;;;;5035892;28;20228;-71
2023/12/08 12:46:42;;;;;;;94.90;38.87;;;0.70;1.00;;;;;;5015669;28;20216;-71
2023/12/08 12:49:15;;;;;;;90.17;38.27;;;0.40;1.00;;;;;;5017006;28;20281;-72
2023/12/08 12:51:45;;;;;;;89.43;37.30;;;0.40;1.00;;;;;;5021215;28;20227;-72